sensor_id;sensor_type;location;lat;lon;timestamp;P1;durP1;ratioP1;P2;durP2;ratioP2
70183;SDS011;57554;51.546;6.776;2023-05-10T02:12:13;29.48;;;12.93;;
70183;SDS011;57554;51.546;6.776;2023-05-10T02:14:44;32.08;;;12.95;;
70183;SDS011;57554;51.546;6.776;2023-05-10T02:17:11;25.60;;;12.98;;
70183;SDS011;57554;51.546;6.776;2023-05-10T02:19:40;28.08;;;12.43;;
70183;SDS011;57554;51.546;6.776;2023-05-10T02:22:09;31.42;;;14.10;;
70183;SDS011;57554;51.546;6.776;2023-05-10T02:24:38;28.40;;;12.48;;
70183;SDS011;57554;51.546;6.776;2023-05-10T02:27:06;26.20;;;12.98;;
70183;SDS011;57554;51.546;6.776;2023-05-10T02:29:35;24.27;;;11.77;;
70183;SDS011;57554;51.546;6.776;2023-05-10T02:32:05;24.27;;;11.38;;
70183;SDS011;57554;51.546;6.776;2023-05-10T02:34:35;28.77;;;12.25;;
70183;SDS011;57554;51.546;6.776;2023-05-10T02:37:03;26.80;;;12.45;;
70183;SDS011;57554;51.546;6.776;2023-05-10T02:39:34;31.48;;;12.07;;
70183;SDS011;57554;51.546;6.776;2023-05-10T02:42:05;27.60;;;12.45;;
70183;SDS011;57554;51.546;6.776;2023-05-10T02:44:33;26.15;;;12.63;;
70183;SDS011;57554;51.546;6.776;2023-05-10T02:47:01;31.52;;;13.55;;
70183;SDS011;57554;51.546;6.776;2023-05-10T02:49:30;28.02;;;13.00;;
70183;SDS011;57554;51.546;6.776;2023-05-10T02:51:56;26.20;;;12.73;;
70183;SDS011;57554;51.546;6.776;2023-05-10T02:54:31;25.65;;;12.93;;
70183;SDS011;57554;51.546;6.776;2023-05-10T02:57:22;31.33;;;14.30;;
70183;SDS011;57554;51.546;6.776;2023-05-10T02:59:54;31.00;;;13.93;;
70183;SDS011;57554;51.546;6.776;2023-05-10T03:02:26;31.15;;;14.77;;
70183;SDS011;57554;51.546;6.776;2023-05-10T03:04:55;32.15;;;14.82;;
70183;SDS011;57554;51.546;6.776;2023-05-10T03:07:26;38.95;;;15.27;;
70183;SDS011;57554;51.546;6.776;2023-05-10T03:09:55;28.77;;;13.90;;
70183;SDS011;57554;51.546;6.776;2023-05-10T03:16:27;34.72;;;15.60;;
70183;SDS011;57554;51.546;6.776;2023-05-10T03:19:13;33.95;;;14.73;;
70183;SDS011;57554;51.546;6.776;2023-05-10T03:22:13;32.83;;;15.43;;
70183;SDS011;57554;51.546;6.776;2023-05-10T03:24:53;41.38;;;16.95;;
70183;SDS011;57554;51.546;6.776;2023-05-10T03:27:28;34.13;;;15.52;;
70183;SDS011;57554;51.546;6.776;2023-05-10T03:29:57;34.15;;;14.98;;
70183;SDS011;57554;51.546;6.776;2023-05-10T03:32:24;41.95;;;16.45;;
70183;SDS011;57554;51.546;6.776;2023-05-10T03:34:55;36.67;;;16.77;;
70183;SDS011;57554;51.546;6.776;2023-05-10T03:37:23;41.38;;;16.83;;
70183;SDS011;57554;51.546;6.776;2023-05-10T03:39:51;34.53;;;16.27;;
70183;SDS011;57554;51.546;6.776;2023-05-10T03:42:19;34.42;;;16.23;;
70183;SDS011;57554;51.546;6.776;2023-05-10T03:48:09;34.50;;;15.88;;
70183;SDS011;57554;51.546;6.776;2023-05-10T03:50:39;38.00;;;16.70;;
70183;SDS011;57554;51.546;6.776;2023-05-10T03:53:10;37.75;;;16.08;;
70183;SDS011;57554;51.546;6.776;2023-05-10T03:55:37;38.90;;;15.85;;
70183;SDS011;57554;51.546;6.776;2023-05-10T03:58:06;37.35;;;17.55;;
70183;SDS011;57554;51.546;6.776;2023-05-10T04:00:32;37.67;;;16.70;;
70183;SDS011;57554;51.546;6.776;2023-05-10T04:03:01;43.53;;;18.92;;
70183;SDS011;57554;51.546;6.776;2023-05-10T04:05:29;37.85;;;15.75;;
70183;SDS011;57554;51.546;6.776;2023-05-10T04:07:55;39.53;;;18.17;;
70183;SDS011;57554;51.546;6.776;2023-05-10T04:10:21;37.33;;;15.65;;
70183;SDS011;57554;51.546;6.776;2023-05-10T04:12:50;43.03;;;18.67;;
70183;SDS011;57554;51.546;6.776;2023-05-10T04:15:18;46.05;;;19.95;;
70183;SDS011;57554;51.546;6.776;2023-05-10T04:17:46;44.67;;;19.52;;
70183;SDS011;57554;51.546;6.776;2023-05-10T04:20:18;52.35;;;20.52;;
70183;SDS011;57554;51.546;6.776;2023-05-10T04:22:45;43.63;;;19.17;;
70183;SDS011;57554;51.546;6.776;2023-05-10T04:25:13;49.22;;;21.48;;
70183;SDS011;57554;51.546;6.776;2023-05-10T04:27:41;48.63;;;19.75;;
70183;SDS011;57554;51.546;6.776;2023-05-10T04:30:14;49.65;;;20.50;;
70183;SDS011;57554;51.546;6.776;2023-05-10T04:32:44;51.08;;;20.83;;
70183;SDS011;57554;51.546;6.776;2023-05-10T04:35:12;56.33;;;22.45;;
70183;SDS011;57554;51.546;6.776;2023-05-10T04:37:41;47.13;;;21.15;;
70183;SDS011;57554;51.546;6.776;2023-05-10T04:40:07;54.15;;;21.30;;
70183;SDS011;57554;51.546;6.776;2023-05-10T04:42:39;55.03;;;22.02;;
70183;SDS011;57554;51.546;6.776;2023-05-10T04:45:06;49.80;;;21.20;;
70183;SDS011;57554;51.546;6.776;2023-05-10T04:47:38;55.88;;;22.15;;
70183;SDS011;57554;51.546;6.776;2023-05-10T04:50:06;48.42;;;21.95;;
70183;SDS011;57554;51.546;6.776;2023-05-10T04:52:35;59.97;;;23.40;;
70183;SDS011;57554;51.546;6.776;2023-05-10T04:55:03;54.35;;;21.65;;
70183;SDS011;57554;51.546;6.776;2023-05-10T04:57:33;62.92;;;21.73;;
70183;SDS011;57554;51.546;6.776;2023-05-10T05:00:05;54.72;;;21.33;;
70183;SDS011;57554;51.546;6.776;2023-05-10T05:02:38;53.45;;;22.77;;
70183;SDS011;57554;51.546;6.776;2023-05-10T05:05:12;62.13;;;24.08;;
70183;SDS011;57554;51.546;6.776;2023-05-10T05:07:46;55.72;;;23.45;;
70183;SDS011;57554;51.546;6.776;2023-05-10T05:10:14;64.28;;;27.35;;
70183;SDS011;57554;51.546;6.776;2023-05-10T05:12:42;57.88;;;24.40;;
70183;SDS011;57554;51.546;6.776;2023-05-10T05:15:09;57.95;;;25.15;;
70183;SDS011;57554;51.546;6.776;2023-05-10T05:17:37;59.08;;;25.55;;
70183;SDS011;57554;51.546;6.776;2023-05-10T05:20:08;53.80;;;24.30;;
70183;SDS011;57554;51.546;6.776;2023-05-10T05:22:45;60.38;;;25.38;;
70183;SDS011;57554;51.546;6.776;2023-05-10T05:25:13;58.60;;;25.23;;
70183;SDS011;57554;51.546;6.776;2023-05-10T05:27:40;55.60;;;25.33;;
70183;SDS011;57554;51.546;6.776;2023-05-10T05:30:08;64.18;;;26.42;;
70183;SDS011;57554;51.546;6.776;2023-05-10T05:32:38;61.47;;;25.23;;
70183;SDS011;57554;51.546;6.776;2023-05-10T05:35:07;64.50;;;26.98;;
70183;SDS011;57554;51.546;6.776;2023-05-10T05:37:37;60.97;;;27.23;;
70183;SDS011;57554;51.546;6.776;2023-05-10T05:40:07;57.33;;;24.80;;
70183;SDS011;57554;51.546;6.776;2023-05-10T05:42:41;63.45;;;26.35;;
70183;SDS011;57554;51.546;6.776;2023-05-10T05:45:07;58.67;;;24.83;;
70183;SDS011;57554;51.546;6.776;2023-05-10T05:47:39;57.00;;;25.58;;
70183;SDS011;57554;51.546;6.776;2023-05-10T05:50:07;66.55;;;27.00;;
70183;SDS011;57554;51.546;6.776;2023-05-10T05:52:38;61.05;;;27.55;;
70183;SDS011;57554;51.546;6.776;2023-05-10T05:55:07;57.17;;;26.27;;
70183;SDS011;57554;51.546;6.776;2023-05-10T05:57:35;56.10;;;25.98;;
70183;SDS011;57554;51.546;6.776;2023-05-10T06:00:03;58.50;;;25.90;;
70183;SDS011;57554;51.546;6.776;2023-05-10T06:02:36;53.08;;;26.05;;
70183;SDS011;57554;51.546;6.776;2023-05-10T06:05:13;58.90;;;26.55;;
70183;SDS011;57554;51.546;6.776;2023-05-10T06:07:42;61.47;;;27.08;;
70183;SDS011;57554;51.546;6.776;2023-05-10T06:10:09;62.90;;;28.35;;
70183;SDS011;57554;51.546;6.776;2023-05-10T06:12:36;54.60;;;25.50;;
70183;SDS011;57554;51.546;6.776;2023-05-10T06:15:05;65.43;;;28.15;;
70183;SDS011;57554;51.546;6.776;2023-05-10T06:17:36;62.25;;;27.40;;
70183;SDS011;57554;51.546;6.776;2023-05-10T06:20:14;60.35;;;26.33;;
70183;SDS011;57554;51.546;6.776;2023-05-10T06:22:41;64.05;;;29.15;;
70183;SDS011;57554;51.546;6.776;2023-05-10T06:25:08;59.22;;;26.77;;
70183;SDS011;57554;51.546;6.776;2023-05-10T06:27:35;57.83;;;26.95;;
70183;SDS011;57554;51.546;6.776;2023-05-10T06:30:07;59.38;;;27.50;;
70183;SDS011;57554;51.546;6.776;2023-05-10T06:35:15;59.05;;;26.38;;
70183;SDS011;57554;51.546;6.776;2023-05-10T06:40:14;60.58;;;25.13;;
70183;SDS011;57554;51.546;6.776;2023-05-10T06:42:42;57.90;;;26.48;;
70183;SDS011;57554;51.546;6.776;2023-05-10T06:45:14;58.38;;;26.77;;
70183;SDS011;57554;51.546;6.776;2023-05-10T06:47:51;57.28;;;25.95;;
70183;SDS011;57554;51.546;6.776;2023-05-10T06:50:19;55.30;;;26.10;;
70183;SDS011;57554;51.546;6.776;2023-05-10T06:52:47;55.53;;;24.50;;
70183;SDS011;57554;51.546;6.776;2023-05-10T06:55:15;64.05;;;27.95;;
70183;SDS011;57554;51.546;6.776;2023-05-10T06:57:44;63.90;;;26.55;;
70183;SDS011;57554;51.546;6.776;2023-05-10T07:00:12;61.83;;;25.73;;
70183;SDS011;57554;51.546;6.776;2023-05-10T07:02:38;63.30;;;27.85;;
70183;SDS011;57554;51.546;6.776;2023-05-10T07:05:05;59.58;;;27.77;;
70183;SDS011;57554;51.546;6.776;2023-05-10T07:07:32;61.20;;;28.05;;
70183;SDS011;57554;51.546;6.776;2023-05-10T07:10:01;57.42;;;26.70;;
70183;SDS011;57554;51.546;6.776;2023-05-10T07:12:30;63.22;;;26.95;;
70183;SDS011;57554;51.546;6.776;2023-05-10T07:14:58;57.58;;;26.88;;
70183;SDS011;57554;51.546;6.776;2023-05-10T07:17:27;57.33;;;25.83;;
70183;SDS011;57554;51.546;6.776;2023-05-10T07:19:57;60.20;;;26.60;;
70183;SDS011;57554;51.546;6.776;2023-05-10T07:22:25;56.80;;;27.00;;
70183;SDS011;57554;51.546;6.776;2023-05-10T07:24:52;59.30;;;25.45;;
70183;SDS011;57554;51.546;6.776;2023-05-10T07:27:20;59.00;;;24.98;;
70183;SDS011;57554;51.546;6.776;2023-05-10T07:29:50;67.47;;;27.25;;
70183;SDS011;57554;51.546;6.776;2023-05-10T07:32:18;62.28;;;25.58;;
70183;SDS011;57554;51.546;6.776;2023-05-10T07:34:47;61.50;;;26.67;;
70183;SDS011;57554;51.546;6.776;2023-05-10T07:37:15;63.05;;;26.38;;
70183;SDS011;57554;51.546;6.776;2023-05-10T07:39:44;61.50;;;25.90;;
70183;SDS011;57554;51.546;6.776;2023-05-10T07:42:14;59.55;;;26.85;;
70183;SDS011;57554;51.546;6.776;2023-05-10T07:44:41;59.92;;;26.90;;
70183;SDS011;57554;51.546;6.776;2023-05-10T07:47:09;56.92;;;24.17;;
70183;SDS011;57554;51.546;6.776;2023-05-10T07:49:39;53.10;;;22.58;;
70183;SDS011;57554;51.546;6.776;2023-05-10T07:52:10;53.35;;;22.85;;
70183;SDS011;57554;51.546;6.776;2023-05-10T07:54:43;52.53;;;22.67;;
70183;SDS011;57554;51.546;6.776;2023-05-10T07:57:13;47.78;;;21.50;;
70183;SDS011;57554;51.546;6.776;2023-05-10T07:59:43;48.53;;;21.70;;
70183;SDS011;57554;51.546;6.776;2023-05-10T08:02:12;49.90;;;20.80;;
70183;SDS011;57554;51.546;6.776;2023-05-10T08:04:40;48.72;;;21.52;;
70183;SDS011;57554;51.546;6.776;2023-05-10T08:07:08;47.22;;;21.23;;
70183;SDS011;57554;51.546;6.776;2023-05-10T08:09:37;52.63;;;22.20;;
70183;SDS011;57554;51.546;6.776;2023-05-10T08:12:04;50.85;;;22.13;;
70183;SDS011;57554;51.546;6.776;2023-05-10T08:14:31;49.38;;;22.17;;
70183;SDS011;57554;51.546;6.776;2023-05-10T08:16:58;47.55;;;21.55;;
70183;SDS011;57554;51.546;6.776;2023-05-10T08:19:26;50.08;;;22.45;;
70183;SDS011;57554;51.546;6.776;2023-05-10T08:21:56;52.03;;;21.98;;
70183;SDS011;57554;51.546;6.776;2023-05-10T08:24:30;49.60;;;21.70;;
70183;SDS011;57554;51.546;6.776;2023-05-10T08:27:08;46.95;;;21.42;;
70183;SDS011;57554;51.546;6.776;2023-05-10T08:39:11;44.03;;;19.33;;
70183;SDS011;57554;51.546;6.776;2023-05-10T08:42:11;38.47;;;19.00;;
70183;SDS011;57554;51.546;6.776;2023-05-10T08:48:15;35.75;;;16.60;;
70183;SDS011;57554;51.546;6.776;2023-05-10T08:50:44;36.92;;;17.77;;
70183;SDS011;57554;51.546;6.776;2023-05-10T09:10:51;34.20;;;17.88;;
70183;SDS011;57554;51.546;6.776;2023-05-10T09:17:07;34.42;;;15.73;;
70183;SDS011;57554;51.546;6.776;2023-05-10T11:02:57;30.02;;;15.43;;
70183;SDS011;57554;51.546;6.776;2023-05-10T11:10:19;29.48;;;14.45;;
70183;SDS011;57554;51.546;6.776;2023-05-10T14:23:38;9.77;;;6.38;;
70183;SDS011;57554;51.546;6.776;2023-05-10T14:26:17;10.45;;;5.50;;
70183;SDS011;57554;51.546;6.776;2023-05-10T15:35:58;17.30;;;9.55;;
70183;SDS011;57554;51.546;6.776;2023-05-10T15:42:01;13.60;;;9.23;;
70183;SDS011;57554;51.546;6.776;2023-05-10T15:44:51;12.55;;;6.78;;
70183;SDS011;57554;51.546;6.776;2023-05-10T15:54:47;9.55;;;5.40;;
70183;SDS011;57554;51.546;6.776;2023-05-10T16:00:37;7.20;;;3.33;;
70183;SDS011;57554;51.546;6.776;2023-05-10T16:09:02;7.45;;;4.00;;
70183;SDS011;57554;51.546;6.776;2023-05-10T16:12:18;7.07;;;4.00;;
70183;SDS011;57554;51.546;6.776;2023-05-10T16:14:47;7.25;;;4.22;;
70183;SDS011;57554;51.546;6.776;2023-05-10T16:17:35;8.55;;;4.80;;
70183;SDS011;57554;51.546;6.776;2023-05-10T16:23:48;10.80;;;5.63;;
70183;SDS011;57554;51.546;6.776;2023-05-10T16:26:29;11.90;;;5.75;;
70183;SDS011;57554;51.546;6.776;2023-05-10T16:29:09;9.68;;;6.40;;
70183;SDS011;57554;51.546;6.776;2023-05-10T16:31:59;11.60;;;6.53;;
70183;SDS011;57554;51.546;6.776;2023-05-10T16:34:26;12.25;;;8.07;;
70183;SDS011;57554;51.546;6.776;2023-05-10T16:36:52;13.90;;;7.88;;
70183;SDS011;57554;51.546;6.776;2023-05-10T16:39:22;15.13;;;8.75;;
70183;SDS011;57554;51.546;6.776;2023-05-10T16:41:49;12.30;;;7.18;;
70183;SDS011;57554;51.546;6.776;2023-05-10T16:50:47;11.27;;;6.90;;
70183;SDS011;57554;51.546;6.776;2023-05-10T16:53:23;13.43;;;6.63;;
70183;SDS011;57554;51.546;6.776;2023-05-10T16:55:51;11.23;;;6.47;;
70183;SDS011;57554;51.546;6.776;2023-05-10T16:58:17;11.75;;;7.00;;
70183;SDS011;57554;51.546;6.776;2023-05-10T17:01:01;12.43;;;6.32;;
70183;SDS011;57554;51.546;6.776;2023-05-10T17:03:35;11.85;;;6.35;;
70183;SDS011;57554;51.546;6.776;2023-05-10T17:09:26;12.57;;;7.25;;
70183;SDS011;57554;51.546;6.776;2023-05-10T17:12:00;13.38;;;7.57;;
70183;SDS011;57554;51.546;6.776;2023-05-10T17:14:30;13.18;;;8.05;;
70183;SDS011;57554;51.546;6.776;2023-05-10T17:17:05;14.40;;;8.55;;
70183;SDS011;57554;51.546;6.776;2023-05-10T17:38:30;14.80;;;8.00;;
70183;SDS011;57554;51.546;6.776;2023-05-10T17:47:23;17.45;;;9.38;;
70183;SDS011;57554;51.546;6.776;2023-05-10T17:49:49;17.13;;;9.82;;
70183;SDS011;57554;51.546;6.776;2023-05-10T17:52:23;14.10;;;8.98;;
70183;SDS011;57554;51.546;6.776;2023-05-10T17:55:17;15.43;;;8.90;;
70183;SDS011;57554;51.546;6.776;2023-05-10T17:57:52;14.52;;;9.32;;
70183;SDS011;57554;51.546;6.776;2023-05-10T18:00:29;17.25;;;10.35;;
70183;SDS011;57554;51.546;6.776;2023-05-10T18:03:03;15.23;;;9.85;;
70183;SDS011;57554;51.546;6.776;2023-05-10T18:11:55;15.63;;;9.27;;
70183;SDS011;57554;51.546;6.776;2023-05-10T18:17:03;16.05;;;9.38;;
70183;SDS011;57554;51.546;6.776;2023-05-10T18:23:04;14.32;;;8.40;;
70183;SDS011;57554;51.546;6.776;2023-05-10T19:55:00;15.77;;;8.60;;
70183;SDS011;57554;51.546;6.776;2023-05-10T20:00:09;14.95;;;9.25;;
70183;SDS011;57554;51.546;6.776;2023-05-10T20:03:16;15.95;;;9.95;;
70183;SDS011;57554;51.546;6.776;2023-05-10T20:05:53;19.52;;;8.60;;
70183;SDS011;57554;51.546;6.776;2023-05-10T20:59:46;22.23;;;13.18;;
70183;SDS011;57554;51.546;6.776;2023-05-10T21:02:20;21.45;;;12.88;;
70183;SDS011;57554;51.546;6.776;2023-05-10T21:04:49;22.77;;;13.85;;
70183;SDS011;57554;51.546;6.776;2023-05-10T21:07:19;23.63;;;11.73;;
70183;SDS011;57554;51.546;6.776;2023-05-10T21:09:56;20.90;;;12.25;;
70183;SDS011;57554;51.546;6.776;2023-05-10T21:12:37;21.95;;;13.50;;
70183;SDS011;57554;51.546;6.776;2023-05-10T22:53:54;33.20;;;19.92;;
70183;SDS011;57554;51.546;6.776;2023-05-10T23:00:10;39.03;;;21.40;;
70183;SDS011;57554;51.546;6.776;2023-05-10T23:02:40;36.25;;;21.70;;
70183;SDS011;57554;51.546;6.776;2023-05-10T23:05:08;38.78;;;21.55;;
70183;SDS011;57554;51.546;6.776;2023-05-10T23:07:35;36.67;;;20.83;;
70183;SDS011;57554;51.546;6.776;2023-05-10T23:10:07;38.17;;;22.10;;
70183;SDS011;57554;51.546;6.776;2023-05-10T23:12:40;40.58;;;22.75;;
70183;SDS011;57554;51.546;6.776;2023-05-10T23:15:21;40.85;;;23.45;;
70183;SDS011;57554;51.546;6.776;2023-05-10T23:18:26;43.30;;;25.17;;
70183;SDS011;57554;51.546;6.776;2023-05-10T23:21:00;40.88;;;22.95;;
70183;SDS011;57554;51.546;6.776;2023-05-10T23:23:35;41.88;;;23.27;;
70183;SDS011;57554;51.546;6.776;2023-05-10T23:26:04;40.88;;;22.75;;
70183;SDS011;57554;51.546;6.776;2023-05-10T23:28:32;40.35;;;22.73;;
70183;SDS011;57554;51.546;6.776;2023-05-10T23:31:05;37.22;;;21.10;;
70183;SDS011;57554;51.546;6.776;2023-05-10T23:33:37;41.80;;;24.63;;
70183;SDS011;57554;51.546;6.776;2023-05-10T23:36:08;39.58;;;23.63;;
70183;SDS011;57554;51.546;6.776;2023-05-10T23:38:36;42.15;;;23.85;;
70183;SDS011;57554;51.546;6.776;2023-05-10T23:41:08;41.20;;;23.90;;
70183;SDS011;57554;51.546;6.776;2023-05-10T23:43:39;40.30;;;22.80;;
70183;SDS011;57554;51.546;6.776;2023-05-10T23:46:09;39.20;;;21.88;;
70183;SDS011;57554;51.546;6.776;2023-05-10T23:49:04;40.38;;;22.27;;
70183;SDS011;57554;51.546;6.776;2023-05-10T23:51:34;35.97;;;22.10;;
70183;SDS011;57554;51.546;6.776;2023-05-10T23:54:01;39.72;;;23.20;;
70183;SDS011;57554;51.546;6.776;2023-05-10T23:56:31;36.90;;;22.15;;
70183;SDS011;57554;51.546;6.776;2023-05-10T23:58:58;37.22;;;21.85;;
